sensor_id;sensor_type;location;lat;lon;timestamp;P1;durP1;ratioP1;P2;durP2;ratioP2
26690;SDS011;14307;51.718;8.938;2023-12-20T00:01:58;65.00;;;26.58;;
26690;SDS011;14307;51.718;8.938;2023-12-20T00:04:25;60.38;;;28.05;;
26690;SDS011;14307;51.718;8.938;2023-12-20T00:06:51;53.60;;;22.25;;
26690;SDS011;14307;51.718;8.938;2023-12-20T00:09:18;58.75;;;25.10;;
26690;SDS011;14307;51.718;8.938;2023-12-20T00:11:45;54.10;;;23.08;;
26690;SDS011;14307;51.718;8.938;2023-12-20T00:14:12;54.22;;;23.48;;
26690;SDS011;14307;51.718;8.938;2023-12-20T00:16:39;61.10;;;25.80;;
26690;SDS011;14307;51.718;8.938;2023-12-20T00:19:05;49.63;;;23.52;;
26690;SDS011;14307;51.718;8.938;2023-12-20T00:21:33;50.60;;;21.83;;
26690;SDS011;14307;51.718;8.938;2023-12-20T00:24:00;42.67;;;20.52;;
26690;SDS011;14307;51.718;8.938;2023-12-20T00:26:27;44.83;;;18.75;;
26690;SDS011;14307;51.718;8.938;2023-12-20T00:28:55;40.97;;;16.67;;
26690;SDS011;14307;51.718;8.938;2023-12-20T00:31:21;43.38;;;20.38;;
26690;SDS011;14307;51.718;8.938;2023-12-20T00:33:48;41.38;;;15.38;;
26690;SDS011;14307;51.718;8.938;2023-12-20T00:36:15;36.10;;;15.85;;
26690;SDS011;14307;51.718;8.938;2023-12-20T00:38:42;31.27;;;13.65;;
26690;SDS011;14307;51.718;8.938;2023-12-20T00:41:09;40.38;;;15.52;;
26690;SDS011;14307;51.718;8.938;2023-12-20T00:43:35;29.23;;;13.75;;
26690;SDS011;14307;51.718;8.938;2023-12-20T00:46:02;31.85;;;12.98;;
26690;SDS011;14307;51.718;8.938;2023-12-20T00:48:29;29.48;;;14.10;;
26690;SDS011;14307;51.718;8.938;2023-12-20T00:50:57;33.13;;;14.82;;
26690;SDS011;14307;51.718;8.938;2023-12-20T00:53:24;30.05;;;14.50;;
26690;SDS011;14307;51.718;8.938;2023-12-20T00:55:51;29.98;;;12.93;;
26690;SDS011;14307;51.718;8.938;2023-12-20T00:58:17;31.30;;;15.68;;
26690;SDS011;14307;51.718;8.938;2023-12-20T01:00:44;32.75;;;15.23;;
26690;SDS011;14307;51.718;8.938;2023-12-20T01:03:11;37.60;;;17.50;;
26690;SDS011;14307;51.718;8.938;2023-12-20T01:05:39;36.50;;;16.83;;
26690;SDS011;14307;51.718;8.938;2023-12-20T01:08:06;37.00;;;16.23;;
26690;SDS011;14307;51.718;8.938;2023-12-20T01:10:32;32.20;;;15.98;;
26690;SDS011;14307;51.718;8.938;2023-12-20T01:12:59;34.78;;;15.25;;
26690;SDS011;14307;51.718;8.938;2023-12-20T01:15:26;29.65;;;14.40;;
26690;SDS011;14307;51.718;8.938;2023-12-20T01:17:53;26.90;;;14.18;;
26690;SDS011;14307;51.718;8.938;2023-12-20T01:20:19;31.60;;;14.60;;
26690;SDS011;14307;51.718;8.938;2023-12-20T01:22:46;27.90;;;13.43;;
26690;SDS011;14307;51.718;8.938;2023-12-20T01:25:13;28.30;;;12.90;;
26690;SDS011;14307;51.718;8.938;2023-12-20T01:27:40;27.77;;;12.80;;
26690;SDS011;14307;51.718;8.938;2023-12-20T01:30:08;21.80;;;11.45;;
26690;SDS011;14307;51.718;8.938;2023-12-20T01:32:35;26.23;;;12.75;;
26690;SDS011;14307;51.718;8.938;2023-12-20T01:35:02;33.38;;;11.60;;
26690;SDS011;14307;51.718;8.938;2023-12-20T01:37:29;24.92;;;11.25;;
26690;SDS011;14307;51.718;8.938;2023-12-20T01:39:56;18.88;;;9.40;;
26690;SDS011;14307;51.718;8.938;2023-12-20T01:42:23;31.05;;;10.80;;
26690;SDS011;14307;51.718;8.938;2023-12-20T01:44:50;22.67;;;10.15;;
26690;SDS011;14307;51.718;8.938;2023-12-20T01:47:17;20.00;;;10.15;;
26690;SDS011;14307;51.718;8.938;2023-12-20T01:49:43;19.95;;;9.40;;
26690;SDS011;14307;51.718;8.938;2023-12-20T01:52:10;24.10;;;10.35;;
26690;SDS011;14307;51.718;8.938;2023-12-20T01:54:38;28.80;;;10.35;;
26690;SDS011;14307;51.718;8.938;2023-12-20T01:57:07;21.25;;;10.70;;
26690;SDS011;14307;51.718;8.938;2023-12-20T01:59:35;24.98;;;11.05;;
26690;SDS011;14307;51.718;8.938;2023-12-20T02:02:02;31.75;;;12.85;;
26690;SDS011;14307;51.718;8.938;2023-12-20T02:04:30;25.90;;;11.05;;
26690;SDS011;14307;51.718;8.938;2023-12-20T02:06:57;25.83;;;11.18;;
26690;SDS011;14307;51.718;8.938;2023-12-20T02:09:26;28.42;;;11.98;;
26690;SDS011;14307;51.718;8.938;2023-12-20T02:11:54;29.85;;;11.73;;
26690;SDS011;14307;51.718;8.938;2023-12-20T02:14:20;30.20;;;12.35;;
26690;SDS011;14307;51.718;8.938;2023-12-20T02:16:47;36.53;;;15.25;;
26690;SDS011;14307;51.718;8.938;2023-12-20T02:19:14;32.47;;;14.70;;
26690;SDS011;14307;51.718;8.938;2023-12-20T02:21:43;32.33;;;15.40;;
26690;SDS011;14307;51.718;8.938;2023-12-20T02:24:10;31.88;;;15.73;;
26690;SDS011;14307;51.718;8.938;2023-12-20T02:26:37;23.83;;;13.40;;
26690;SDS011;14307;51.718;8.938;2023-12-20T02:29:04;24.85;;;10.68;;
26690;SDS011;14307;51.718;8.938;2023-12-20T02:31:31;27.40;;;11.38;;
26690;SDS011;14307;51.718;8.938;2023-12-20T02:33:59;26.02;;;11.90;;
26690;SDS011;14307;51.718;8.938;2023-12-20T02:36:26;30.50;;;12.77;;
26690;SDS011;14307;51.718;8.938;2023-12-20T02:38:53;29.70;;;14.48;;
26690;SDS011;14307;51.718;8.938;2023-12-20T02:41:20;28.50;;;13.52;;
26690;SDS011;14307;51.718;8.938;2023-12-20T02:43:47;26.73;;;13.20;;
26690;SDS011;14307;51.718;8.938;2023-12-20T02:46:14;24.33;;;12.77;;
26690;SDS011;14307;51.718;8.938;2023-12-20T02:48:43;26.35;;;10.77;;
26690;SDS011;14307;51.718;8.938;2023-12-20T02:51:10;23.80;;;11.32;;
26690;SDS011;14307;51.718;8.938;2023-12-20T02:53:37;26.60;;;10.15;;
26690;SDS011;14307;51.718;8.938;2023-12-20T02:56:04;27.42;;;11.50;;
26690;SDS011;14307;51.718;8.938;2023-12-20T02:58:31;31.70;;;11.35;;
26690;SDS011;14307;51.718;8.938;2023-12-20T03:00:58;28.00;;;10.63;;
26690;SDS011;14307;51.718;8.938;2023-12-20T03:03:25;24.20;;;11.27;;
26690;SDS011;14307;51.718;8.938;2023-12-20T03:05:51;28.48;;;10.02;;
26690;SDS011;14307;51.718;8.938;2023-12-20T03:08:18;27.77;;;10.27;;
26690;SDS011;14307;51.718;8.938;2023-12-20T03:10:45;23.88;;;8.82;;
26690;SDS011;14307;51.718;8.938;2023-12-20T03:13:11;25.77;;;10.02;;
26690;SDS011;14307;51.718;8.938;2023-12-20T03:15:38;20.85;;;9.43;;
26690;SDS011;14307;51.718;8.938;2023-12-20T03:18:05;24.10;;;10.23;;
26690;SDS011;14307;51.718;8.938;2023-12-20T03:20:32;29.13;;;10.82;;
26690;SDS011;14307;51.718;8.938;2023-12-20T03:23:00;24.92;;;11.20;;
26690;SDS011;14307;51.718;8.938;2023-12-20T03:25:27;28.38;;;12.23;;
26690;SDS011;14307;51.718;8.938;2023-12-20T03:27:54;32.55;;;12.65;;
26690;SDS011;14307;51.718;8.938;2023-12-20T03:30:21;27.33;;;13.40;;
26690;SDS011;14307;51.718;8.938;2023-12-20T03:32:48;26.90;;;12.88;;
26690;SDS011;14307;51.718;8.938;2023-12-20T03:35:14;35.75;;;14.88;;
26690;SDS011;14307;51.718;8.938;2023-12-20T03:37:41;30.83;;;14.52;;
26690;SDS011;14307;51.718;8.938;2023-12-20T03:40:09;34.92;;;15.32;;
26690;SDS011;14307;51.718;8.938;2023-12-20T03:42:36;34.55;;;15.40;;
26690;SDS011;14307;51.718;8.938;2023-12-20T03:45:03;35.08;;;14.38;;
26690;SDS011;14307;51.718;8.938;2023-12-20T03:47:30;37.42;;;15.02;;
26690;SDS011;14307;51.718;8.938;2023-12-20T03:49:57;30.27;;;14.98;;
26690;SDS011;14307;51.718;8.938;2023-12-20T03:52:23;34.63;;;15.45;;
26690;SDS011;14307;51.718;8.938;2023-12-20T03:54:50;33.90;;;14.80;;
26690;SDS011;14307;51.718;8.938;2023-12-20T03:57:17;38.05;;;15.18;;
26690;SDS011;14307;51.718;8.938;2023-12-20T03:59:44;41.65;;;14.55;;
26690;SDS011;14307;51.718;8.938;2023-12-20T04:02:11;31.85;;;14.55;;
26690;SDS011;14307;51.718;8.938;2023-12-20T04:04:37;35.65;;;15.50;;
26690;SDS011;14307;51.718;8.938;2023-12-20T04:07:04;38.88;;;14.68;;
26690;SDS011;14307;51.718;8.938;2023-12-20T04:09:31;33.00;;;14.07;;
26690;SDS011;14307;51.718;8.938;2023-12-20T04:11:58;39.08;;;14.70;;
26690;SDS011;14307;51.718;8.938;2023-12-20T04:14:24;33.45;;;14.43;;
26690;SDS011;14307;51.718;8.938;2023-12-20T04:16:52;31.88;;;13.82;;
26690;SDS011;14307;51.718;8.938;2023-12-20T04:19:19;38.75;;;14.88;;
26690;SDS011;14307;51.718;8.938;2023-12-20T04:21:46;26.40;;;11.23;;
26690;SDS011;14307;51.718;8.938;2023-12-20T04:24:12;38.22;;;13.07;;
26690;SDS011;14307;51.718;8.938;2023-12-20T04:26:39;29.70;;;12.35;;
26690;SDS011;14307;51.718;8.938;2023-12-20T04:29:06;30.85;;;12.48;;
26690;SDS011;14307;51.718;8.938;2023-12-20T04:31:33;39.72;;;15.27;;
26690;SDS011;14307;51.718;8.938;2023-12-20T04:33:59;34.38;;;12.82;;
26690;SDS011;14307;51.718;8.938;2023-12-20T04:36:26;37.42;;;15.27;;
26690;SDS011;14307;51.718;8.938;2023-12-20T04:38:53;38.80;;;14.13;;
26690;SDS011;14307;51.718;8.938;2023-12-20T04:41:21;37.53;;;15.90;;
26690;SDS011;14307;51.718;8.938;2023-12-20T04:43:49;36.15;;;14.35;;
26690;SDS011;14307;51.718;8.938;2023-12-20T04:46:16;29.70;;;14.23;;
26690;SDS011;14307;51.718;8.938;2023-12-20T04:48:44;36.80;;;14.63;;
26690;SDS011;14307;51.718;8.938;2023-12-20T04:51:10;35.08;;;12.48;;
26690;SDS011;14307;51.718;8.938;2023-12-20T04:53:37;26.65;;;12.38;;
26690;SDS011;14307;51.718;8.938;2023-12-20T04:56:04;35.17;;;11.82;;
26690;SDS011;14307;51.718;8.938;2023-12-20T04:58:32;34.67;;;13.45;;
26690;SDS011;14307;51.718;8.938;2023-12-20T05:00:59;27.90;;;12.15;;
26690;SDS011;14307;51.718;8.938;2023-12-20T05:03:26;39.95;;;13.20;;
26690;SDS011;14307;51.718;8.938;2023-12-20T05:05:53;33.38;;;12.70;;
26690;SDS011;14307;51.718;8.938;2023-12-20T05:08:20;34.83;;;11.85;;
26690;SDS011;14307;51.718;8.938;2023-12-20T05:10:47;29.85;;;12.77;;
26690;SDS011;14307;51.718;8.938;2023-12-20T05:13:14;29.67;;;10.93;;
26690;SDS011;14307;51.718;8.938;2023-12-20T05:15:41;41.78;;;14.30;;
26690;SDS011;14307;51.718;8.938;2023-12-20T05:18:07;45.50;;;14.68;;
26690;SDS011;14307;51.718;8.938;2023-12-20T05:20:34;34.45;;;14.27;;
26690;SDS011;14307;51.718;8.938;2023-12-20T05:23:01;52.90;;;14.20;;
26690;SDS011;14307;51.718;8.938;2023-12-20T05:25:28;28.83;;;13.30;;
26690;SDS011;14307;51.718;8.938;2023-12-20T05:27:55;33.13;;;12.30;;
26690;SDS011;14307;51.718;8.938;2023-12-20T05:30:22;31.65;;;13.65;;
26690;SDS011;14307;51.718;8.938;2023-12-20T05:32:49;39.72;;;14.98;;
26690;SDS011;14307;51.718;8.938;2023-12-20T05:35:16;26.27;;;12.73;;
26690;SDS011;14307;51.718;8.938;2023-12-20T05:37:43;34.17;;;14.32;;
26690;SDS011;14307;51.718;8.938;2023-12-20T05:40:11;33.50;;;12.75;;
26690;SDS011;14307;51.718;8.938;2023-12-20T05:42:38;38.35;;;14.15;;
26690;SDS011;14307;51.718;8.938;2023-12-20T05:45:05;39.50;;;15.02;;
26690;SDS011;14307;51.718;8.938;2023-12-20T05:47:33;43.17;;;16.15;;
26690;SDS011;14307;51.718;8.938;2023-12-20T05:50:00;33.75;;;15.73;;
26690;SDS011;14307;51.718;8.938;2023-12-20T05:52:26;31.70;;;13.05;;
26690;SDS011;14307;51.718;8.938;2023-12-20T05:54:53;44.13;;;16.95;;
26690;SDS011;14307;51.718;8.938;2023-12-20T05:57:20;35.58;;;15.77;;
26690;SDS011;14307;51.718;8.938;2023-12-20T05:59:47;37.22;;;15.88;;
26690;SDS011;14307;51.718;8.938;2023-12-20T06:02:13;41.90;;;17.88;;
26690;SDS011;14307;51.718;8.938;2023-12-20T06:04:41;35.28;;;16.48;;
26690;SDS011;14307;51.718;8.938;2023-12-20T06:07:13;40.80;;;17.20;;
26690;SDS011;14307;51.718;8.938;2023-12-20T06:09:40;43.85;;;15.52;;
26690;SDS011;14307;51.718;8.938;2023-12-20T06:12:07;44.35;;;17.13;;
26690;SDS011;14307;51.718;8.938;2023-12-20T06:14:34;46.58;;;15.20;;
26690;SDS011;14307;51.718;8.938;2023-12-20T06:17:01;40.60;;;16.15;;
26690;SDS011;14307;51.718;8.938;2023-12-20T06:19:28;36.60;;;17.00;;
26690;SDS011;14307;51.718;8.938;2023-12-20T06:21:55;38.47;;;16.45;;
26690;SDS011;14307;51.718;8.938;2023-12-20T06:24:22;32.88;;;14.82;;
26690;SDS011;14307;51.718;8.938;2023-12-20T06:26:53;58.25;;;19.77;;
26690;SDS011;14307;51.718;8.938;2023-12-20T06:29:21;52.10;;;20.40;;
26690;SDS011;14307;51.718;8.938;2023-12-20T06:31:48;42.40;;;18.88;;
26690;SDS011;14307;51.718;8.938;2023-12-20T06:34:15;48.25;;;19.38;;
26690;SDS011;14307;51.718;8.938;2023-12-20T06:36:42;48.67;;;20.00;;
26690;SDS011;14307;51.718;8.938;2023-12-20T06:39:09;43.72;;;19.33;;
26690;SDS011;14307;51.718;8.938;2023-12-20T06:41:38;53.20;;;21.58;;
26690;SDS011;14307;51.718;8.938;2023-12-20T06:44:05;51.60;;;22.23;;
26690;SDS011;14307;51.718;8.938;2023-12-20T06:46:32;55.50;;;20.60;;
26690;SDS011;14307;51.718;8.938;2023-12-20T06:48:59;40.22;;;18.90;;
26690;SDS011;14307;51.718;8.938;2023-12-20T06:51:26;50.42;;;21.15;;
26690;SDS011;14307;51.718;8.938;2023-12-20T06:53:53;57.08;;;21.73;;
26690;SDS011;14307;51.718;8.938;2023-12-20T06:56:20;51.85;;;23.08;;
26690;SDS011;14307;51.718;8.938;2023-12-20T06:58:47;55.95;;;21.15;;
26690;SDS011;14307;51.718;8.938;2023-12-20T07:01:14;57.92;;;22.02;;
26690;SDS011;14307;51.718;8.938;2023-12-20T07:03:42;54.47;;;20.02;;
26690;SDS011;14307;51.718;8.938;2023-12-20T07:06:09;52.35;;;22.38;;
26690;SDS011;14307;51.718;8.938;2023-12-20T07:08:36;52.70;;;23.33;;
26690;SDS011;14307;51.718;8.938;2023-12-20T07:11:03;52.53;;;22.52;;
26690;SDS011;14307;51.718;8.938;2023-12-20T07:13:30;49.63;;;20.38;;
26690;SDS011;14307;51.718;8.938;2023-12-20T07:15:57;56.33;;;23.08;;
26690;SDS011;14307;51.718;8.938;2023-12-20T07:18:24;59.50;;;21.27;;
26690;SDS011;14307;51.718;8.938;2023-12-20T07:20:51;55.25;;;20.80;;
26690;SDS011;14307;51.718;8.938;2023-12-20T07:23:18;50.17;;;18.95;;
26690;SDS011;14307;51.718;8.938;2023-12-20T07:25:46;46.70;;;19.17;;
26690;SDS011;14307;51.718;8.938;2023-12-20T07:28:13;60.50;;;19.75;;
26690;SDS011;14307;51.718;8.938;2023-12-20T07:30:40;58.45;;;22.88;;
26690;SDS011;14307;51.718;8.938;2023-12-20T07:33:07;46.95;;;20.77;;
26690;SDS011;14307;51.718;8.938;2023-12-20T07:35:35;63.78;;;22.90;;
26690;SDS011;14307;51.718;8.938;2023-12-20T07:38:02;55.38;;;21.15;;
26690;SDS011;14307;51.718;8.938;2023-12-20T07:40:29;61.70;;;22.92;;
26690;SDS011;14307;51.718;8.938;2023-12-20T07:42:56;59.70;;;21.80;;
26690;SDS011;14307;51.718;8.938;2023-12-20T07:45:24;49.05;;;21.00;;
26690;SDS011;14307;51.718;8.938;2023-12-20T07:47:51;59.53;;;20.48;;
26690;SDS011;14307;51.718;8.938;2023-12-20T07:50:18;60.90;;;23.35;;
26690;SDS011;14307;51.718;8.938;2023-12-20T07:52:45;66.55;;;22.60;;
26690;SDS011;14307;51.718;8.938;2023-12-20T07:55:11;49.08;;;18.60;;
26690;SDS011;14307;51.718;8.938;2023-12-20T07:57:38;38.17;;;17.45;;
26690;SDS011;14307;51.718;8.938;2023-12-20T08:00:05;53.10;;;18.65;;
26690;SDS011;14307;51.718;8.938;2023-12-20T08:02:32;36.90;;;17.40;;
26690;SDS011;14307;51.718;8.938;2023-12-20T08:04:59;38.83;;;16.77;;
26690;SDS011;14307;51.718;8.938;2023-12-20T08:07:26;49.35;;;19.05;;
26690;SDS011;14307;51.718;8.938;2023-12-20T08:09:52;44.63;;;19.17;;
26690;SDS011;14307;51.718;8.938;2023-12-20T08:12:21;50.17;;;18.58;;
26690;SDS011;14307;51.718;8.938;2023-12-20T08:14:48;55.85;;;18.40;;
26690;SDS011;14307;51.718;8.938;2023-12-20T08:17:14;42.50;;;17.35;;
26690;SDS011;14307;51.718;8.938;2023-12-20T08:19:42;39.40;;;15.75;;
26690;SDS011;14307;51.718;8.938;2023-12-20T08:22:09;60.78;;;20.13;;
26690;SDS011;14307;51.718;8.938;2023-12-20T08:24:36;42.78;;;17.90;;
26690;SDS011;14307;51.718;8.938;2023-12-20T08:27:03;38.95;;;16.95;;
26690;SDS011;14307;51.718;8.938;2023-12-20T08:29:31;47.47;;;17.58;;
26690;SDS011;14307;51.718;8.938;2023-12-20T08:31:59;36.60;;;18.70;;
26690;SDS011;14307;51.718;8.938;2023-12-20T08:34:26;37.63;;;17.92;;
26690;SDS011;14307;51.718;8.938;2023-12-20T08:36:53;51.53;;;18.77;;
26690;SDS011;14307;51.718;8.938;2023-12-20T08:39:20;41.45;;;16.30;;
26690;SDS011;14307;51.718;8.938;2023-12-20T08:41:47;30.40;;;15.23;;
26690;SDS011;14307;51.718;8.938;2023-12-20T08:44:14;42.90;;;16.08;;
26690;SDS011;14307;51.718;8.938;2023-12-20T08:46:42;39.20;;;17.23;;
26690;SDS011;14307;51.718;8.938;2023-12-20T08:49:09;47.30;;;18.20;;
26690;SDS011;14307;51.718;8.938;2023-12-20T08:51:36;38.10;;;16.05;;
26690;SDS011;14307;51.718;8.938;2023-12-20T08:54:06;34.80;;;16.80;;
26690;SDS011;14307;51.718;8.938;2023-12-20T08:56:36;41.47;;;18.70;;
26690;SDS011;14307;51.718;8.938;2023-12-20T08:59:03;40.83;;;15.88;;
26690;SDS011;14307;51.718;8.938;2023-12-20T09:01:30;44.25;;;17.90;;
26690;SDS011;14307;51.718;8.938;2023-12-20T09:03:57;48.28;;;19.45;;
26690;SDS011;14307;51.718;8.938;2023-12-20T09:06:24;35.88;;;16.63;;
26690;SDS011;14307;51.718;8.938;2023-12-20T09:08:51;36.58;;;18.42;;
26690;SDS011;14307;51.718;8.938;2023-12-20T09:11:18;42.10;;;17.15;;
26690;SDS011;14307;51.718;8.938;2023-12-20T09:13:46;43.25;;;16.15;;
26690;SDS011;14307;51.718;8.938;2023-12-20T09:16:12;33.28;;;15.65;;
26690;SDS011;14307;51.718;8.938;2023-12-20T09:18:42;30.65;;;16.23;;
26690;SDS011;14307;51.718;8.938;2023-12-20T09:21:09;33.97;;;14.43;;
26690;SDS011;14307;51.718;8.938;2023-12-20T09:23:36;30.73;;;14.23;;
26690;SDS011;14307;51.718;8.938;2023-12-20T09:26:03;41.00;;;15.23;;
26690;SDS011;14307;51.718;8.938;2023-12-20T09:28:30;32.30;;;16.00;;
26690;SDS011;14307;51.718;8.938;2023-12-20T09:30:59;42.22;;;17.35;;
26690;SDS011;14307;51.718;8.938;2023-12-20T09:33:26;37.22;;;15.40;;
26690;SDS011;14307;51.718;8.938;2023-12-20T09:35:53;32.17;;;15.55;;
26690;SDS011;14307;51.718;8.938;2023-12-20T09:38:20;33.28;;;16.52;;
26690;SDS011;14307;51.718;8.938;2023-12-20T09:40:47;35.25;;;19.17;;
26690;SDS011;14307;51.718;8.938;2023-12-20T09:43:14;27.45;;;16.92;;
26690;SDS011;14307;51.718;8.938;2023-12-20T09:45:45;40.97;;;17.65;;
26690;SDS011;14307;51.718;8.938;2023-12-20T09:48:13;24.88;;;14.43;;
26690;SDS011;14307;51.718;8.938;2023-12-20T09:50:50;30.50;;;18.35;;
26690;SDS011;14307;51.718;8.938;2023-12-20T09:53:20;43.83;;;18.05;;
26690;SDS011;14307;51.718;8.938;2023-12-20T09:55:50;36.25;;;16.27;;
26690;SDS011;14307;51.718;8.938;2023-12-20T09:58:18;36.97;;;17.48;;
26690;SDS011;14307;51.718;8.938;2023-12-20T10:00:46;40.25;;;18.17;;
26690;SDS011;14307;51.718;8.938;2023-12-20T10:03:13;34.25;;;16.00;;
26690;SDS011;14307;51.718;8.938;2023-12-20T10:05:44;43.67;;;19.48;;
26690;SDS011;14307;51.718;8.938;2023-12-20T10:08:11;36.70;;;16.40;;
26690;SDS011;14307;51.718;8.938;2023-12-20T10:10:38;40.65;;;18.15;;
26690;SDS011;14307;51.718;8.938;2023-12-20T10:13:13;31.73;;;14.32;;
26690;SDS011;14307;51.718;8.938;2023-12-20T10:15:41;39.13;;;15.63;;
26690;SDS011;14307;51.718;8.938;2023-12-20T10:18:09;32.72;;;15.88;;
26690;SDS011;14307;51.718;8.938;2023-12-20T10:20:37;32.83;;;16.05;;
26690;SDS011;14307;51.718;8.938;2023-12-20T10:23:06;44.97;;;18.17;;
26690;SDS011;14307;51.718;8.938;2023-12-20T10:25:33;27.80;;;15.43;;
26690;SDS011;14307;51.718;8.938;2023-12-20T10:30:41;47.45;;;17.83;;
26690;SDS011;14307;51.718;8.938;2023-12-20T10:33:09;33.90;;;16.90;;
26690;SDS011;14307;51.718;8.938;2023-12-20T10:35:37;28.80;;;16.63;;
26690;SDS011;14307;51.718;8.938;2023-12-20T10:38:10;32.97;;;15.00;;
26690;SDS011;14307;51.718;8.938;2023-12-20T10:40:39;36.08;;;17.70;;
26690;SDS011;14307;51.718;8.938;2023-12-20T10:43:06;44.00;;;17.52;;
26690;SDS011;14307;51.718;8.938;2023-12-20T10:45:35;42.45;;;19.05;;
26690;SDS011;14307;51.718;8.938;2023-12-20T10:48:03;31.48;;;16.83;;
26690;SDS011;14307;51.718;8.938;2023-12-20T10:50:31;49.47;;;17.42;;
26690;SDS011;14307;51.718;8.938;2023-12-20T10:52:58;37.38;;;16.00;;
26690;SDS011;14307;51.718;8.938;2023-12-20T10:55:26;36.63;;;17.73;;
26690;SDS011;14307;51.718;8.938;2023-12-20T10:57:54;42.15;;;19.27;;
26690;SDS011;14307;51.718;8.938;2023-12-20T11:00:28;45.50;;;17.23;;
26690;SDS011;14307;51.718;8.938;2023-12-20T11:02:58;41.95;;;18.52;;
26690;SDS011;14307;51.718;8.938;2023-12-20T11:05:38;48.13;;;19.15;;
26690;SDS011;14307;51.718;8.938;2023-12-20T11:08:28;39.88;;;17.92;;
26690;SDS011;14307;51.718;8.938;2023-12-20T11:11:17;44.08;;;18.50;;
26690;SDS011;14307;51.718;8.938;2023-12-20T11:14:08;42.15;;;18.00;;
26690;SDS011;14307;51.718;8.938;2023-12-20T11:16:41;37.88;;;17.52;;
26690;SDS011;14307;51.718;8.938;2023-12-20T11:19:20;43.03;;;20.17;;
26690;SDS011;14307;51.718;8.938;2023-12-20T11:21:47;33.28;;;16.70;;
26690;SDS011;14307;51.718;8.938;2023-12-20T11:24:15;43.60;;;19.00;;
26690;SDS011;14307;51.718;8.938;2023-12-20T11:26:46;35.42;;;18.23;;
26690;SDS011;14307;51.718;8.938;2023-12-20T11:29:30;35.15;;;18.63;;
26690;SDS011;14307;51.718;8.938;2023-12-20T11:31:59;30.33;;;14.00;;
26690;SDS011;14307;51.718;8.938;2023-12-20T11:34:28;44.22;;;18.77;;
26690;SDS011;14307;51.718;8.938;2023-12-20T11:36:58;35.28;;;15.25;;
26690;SDS011;14307;51.718;8.938;2023-12-20T11:39:26;39.10;;;19.08;;
26690;SDS011;14307;51.718;8.938;2023-12-20T11:41:56;44.28;;;19.05;;
26690;SDS011;14307;51.718;8.938;2023-12-20T11:44:25;44.67;;;18.95;;
26690;SDS011;14307;51.718;8.938;2023-12-20T11:46:52;40.15;;;20.27;;
26690;SDS011;14307;51.718;8.938;2023-12-20T11:49:23;43.70;;;19.95;;
26690;SDS011;14307;51.718;8.938;2023-12-20T11:51:51;40.63;;;18.85;;
26690;SDS011;14307;51.718;8.938;2023-12-20T11:54:18;51.33;;;18.83;;
26690;SDS011;14307;51.718;8.938;2023-12-20T11:56:45;47.78;;;20.63;;
26690;SDS011;14307;51.718;8.938;2023-12-20T11:59:13;35.88;;;20.67;;
26690;SDS011;14307;51.718;8.938;2023-12-20T12:01:49;42.78;;;19.00;;
26690;SDS011;14307;51.718;8.938;2023-12-20T12:04:17;30.83;;;16.80;;
26690;SDS011;14307;51.718;8.938;2023-12-20T12:06:45;51.40;;;19.98;;
26690;SDS011;14307;51.718;8.938;2023-12-20T12:09:12;35.47;;;16.60;;
26690;SDS011;14307;51.718;8.938;2023-12-20T12:11:39;31.65;;;17.30;;
26690;SDS011;14307;51.718;8.938;2023-12-20T12:14:06;47.55;;;21.17;;
26690;SDS011;14307;51.718;8.938;2023-12-20T12:16:34;39.08;;;21.52;;
26690;SDS011;14307;51.718;8.938;2023-12-20T12:19:01;50.78;;;23.10;;
26690;SDS011;14307;51.718;8.938;2023-12-20T12:21:28;44.83;;;22.20;;
26690;SDS011;14307;51.718;8.938;2023-12-20T12:24:08;41.63;;;21.30;;
26690;SDS011;14307;51.718;8.938;2023-12-20T12:26:36;45.03;;;20.33;;
26690;SDS011;14307;51.718;8.938;2023-12-20T12:29:03;37.17;;;21.05;;
26690;SDS011;14307;51.718;8.938;2023-12-20T12:31:34;38.50;;;22.15;;
26690;SDS011;14307;51.718;8.938;2023-12-20T12:34:01;43.40;;;22.05;;
26690;SDS011;14307;51.718;8.938;2023-12-20T12:36:29;35.30;;;19.63;;
26690;SDS011;14307;51.718;8.938;2023-12-20T12:38:56;45.58;;;23.73;;
26690;SDS011;14307;51.718;8.938;2023-12-20T12:41:24;39.92;;;24.45;;
26690;SDS011;14307;51.718;8.938;2023-12-20T12:43:51;44.17;;;21.58;;
26690;SDS011;14307;51.718;8.938;2023-12-20T12:46:18;42.13;;;20.92;;
26690;SDS011;14307;51.718;8.938;2023-12-20T12:48:45;56.05;;;21.27;;
26690;SDS011;14307;51.718;8.938;2023-12-20T12:51:13;37.83;;;21.27;;
26690;SDS011;14307;51.718;8.938;2023-12-20T12:53:40;33.03;;;18.80;;
26690;SDS011;14307;51.718;8.938;2023-12-20T12:56:07;31.58;;;19.23;;
26690;SDS011;14307;51.718;8.938;2023-12-20T12:58:34;43.20;;;22.10;;
26690;SDS011;14307;51.718;8.938;2023-12-20T13:01:01;41.90;;;20.48;;
26690;SDS011;14307;51.718;8.938;2023-12-20T13:03:30;47.95;;;22.65;;
26690;SDS011;14307;51.718;8.938;2023-12-20T13:05:57;49.75;;;23.05;;
26690;SDS011;14307;51.718;8.938;2023-12-20T13:08:24;38.08;;;21.35;;
26690;SDS011;14307;51.718;8.938;2023-12-20T13:10:51;33.22;;;17.85;;
26690;SDS011;14307;51.718;8.938;2023-12-20T13:13:18;41.75;;;21.02;;
26690;SDS011;14307;51.718;8.938;2023-12-20T13:15:45;39.42;;;19.65;;
26690;SDS011;14307;51.718;8.938;2023-12-20T13:18:17;38.47;;;21.15;;
26690;SDS011;14307;51.718;8.938;2023-12-20T13:20:45;33.88;;;18.80;;
26690;SDS011;14307;51.718;8.938;2023-12-20T13:23:12;43.55;;;21.90;;
26690;SDS011;14307;51.718;8.938;2023-12-20T13:25:39;36.90;;;17.83;;
26690;SDS011;14307;51.718;8.938;2023-12-20T13:28:07;29.23;;;17.88;;
26690;SDS011;14307;51.718;8.938;2023-12-20T13:30:34;35.58;;;17.63;;
26690;SDS011;14307;51.718;8.938;2023-12-20T13:33:02;31.48;;;16.88;;
26690;SDS011;14307;51.718;8.938;2023-12-20T13:35:29;30.52;;;14.75;;
26690;SDS011;14307;51.718;8.938;2023-12-20T13:37:56;42.80;;;17.90;;
26690;SDS011;14307;51.718;8.938;2023-12-20T13:40:23;25.13;;;14.02;;
26690;SDS011;14307;51.718;8.938;2023-12-20T13:42:50;36.33;;;13.63;;
26690;SDS011;14307;51.718;8.938;2023-12-20T13:45:17;26.73;;;13.50;;
26690;SDS011;14307;51.718;8.938;2023-12-20T13:47:44;31.30;;;17.23;;
26690;SDS011;14307;51.718;8.938;2023-12-20T13:50:11;35.20;;;18.50;;
26690;SDS011;14307;51.718;8.938;2023-12-20T13:52:39;27.88;;;19.20;;
26690;SDS011;14307;51.718;8.938;2023-12-20T13:55:06;28.83;;;17.55;;
26690;SDS011;14307;51.718;8.938;2023-12-20T13:57:35;32.05;;;18.13;;
26690;SDS011;14307;51.718;8.938;2023-12-20T14:00:20;28.73;;;16.27;;
26690;SDS011;14307;51.718;8.938;2023-12-20T14:02:47;28.67;;;17.23;;
26690;SDS011;14307;51.718;8.938;2023-12-20T14:05:15;29.73;;;15.40;;
26690;SDS011;14307;51.718;8.938;2023-12-20T14:07:46;30.80;;;17.83;;
26690;SDS011;14307;51.718;8.938;2023-12-20T14:10:14;29.25;;;15.18;;
26690;SDS011;14307;51.718;8.938;2023-12-20T14:12:41;26.00;;;13.90;;
26690;SDS011;14307;51.718;8.938;2023-12-20T14:15:10;26.30;;;16.30;;
26690;SDS011;14307;51.718;8.938;2023-12-20T14:17:40;22.42;;;15.30;;
26690;SDS011;14307;51.718;8.938;2023-12-20T14:20:10;31.00;;;18.02;;
26690;SDS011;14307;51.718;8.938;2023-12-20T14:22:41;38.47;;;18.70;;
26690;SDS011;14307;51.718;8.938;2023-12-20T14:25:13;31.67;;;19.45;;
26690;SDS011;14307;51.718;8.938;2023-12-20T14:27:41;37.15;;;16.63;;